createdAt,value
2022-12-08T00:00:34.033Z,1005.29
2022-12-08T00:01:33.523Z,1005.29
2022-12-08T00:02:33.933Z,1005.26
2022-12-08T00:03:33.805Z,1005.26
2022-12-08T00:04:33.470Z,1005.26
2022-12-08T00:05:33.827Z,1005.26
2022-12-08T00:06:33.538Z,1005.23
2022-12-08T00:07:33.761Z,1005.22
2022-12-08T00:08:34.114Z,1005.20
2022-12-08T00:09:38.755Z,1005.17
2022-12-08T00:10:49.044Z,1005.16
2022-12-08T00:11:33.669Z,1005.14
2022-12-08T00:12:33.858Z,1005.15
2022-12-08T00:13:33.557Z,1005.14
2022-12-08T00:14:34.580Z,1005.12
2022-12-08T00:15:33.665Z,1005.10
2022-12-08T00:16:32.728Z,1005.10
2022-12-08T00:17:33.406Z,1005.10
2022-12-08T00:18:33.598Z,1005.08
2022-12-08T00:19:33.612Z,1005.08
2022-12-08T00:20:33.516Z,1005.07
2022-12-08T00:21:33.743Z,1005.07
2022-12-08T00:22:33.490Z,1005.06
2022-12-08T00:23:33.532Z,1005.03
2022-12-08T00:24:33.425Z,1005.01
2022-12-08T00:25:33.533Z,1005.00
2022-12-08T00:26:33.490Z,1004.97
2022-12-08T00:27:33.709Z,1004.98
2022-12-08T00:28:33.422Z,1004.96
2022-12-08T00:29:33.372Z,1004.94
2022-12-08T00:30:33.371Z,1004.93
2022-12-08T00:31:33.541Z,1004.91
2022-12-08T00:32:33.541Z,1004.90
2022-12-08T00:33:33.361Z,1004.90
2022-12-08T00:34:33.238Z,1004.89
2022-12-08T00:35:34.846Z,1004.87
2022-12-08T00:36:33.355Z,1004.88
2022-12-08T00:37:33.354Z,1004.86
2022-12-08T00:38:34.028Z,1004.83
2022-12-08T00:39:33.553Z,1004.82
2022-12-08T00:40:33.443Z,1004.80
2022-12-08T00:41:33.241Z,1004.80
2022-12-08T00:42:33.217Z,1004.79
2022-12-08T00:43:34.854Z,1004.79
2022-12-08T00:44:33.530Z,1004.76
2022-12-08T00:45:33.360Z,1004.74
2022-12-08T00:46:33.241Z,1004.75
2022-12-08T00:47:33.203Z,1004.70
2022-12-08T00:48:33.245Z,1004.69
2022-12-08T00:49:33.289Z,1004.73
2022-12-08T00:50:33.228Z,1004.71
2022-12-08T00:51:33.122Z,1004.70
2022-12-08T00:52:33.285Z,1004.71
2022-12-08T00:53:32.913Z,1004.73
2022-12-08T00:54:33.603Z,1004.71
2022-12-08T00:55:33.255Z,1004.73
2022-12-08T00:56:33.144Z,1004.73
2022-12-08T00:57:33.359Z,1004.74
2022-12-08T00:58:33.066Z,1004.73
2022-12-08T00:59:33.042Z,1004.72
2022-12-08T01:00:33.510Z,1004.73
2022-12-08T01:01:33.932Z,1004.70
2022-12-08T01:02:33.072Z,1004.70
2022-12-08T01:03:33.376Z,1004.71
2022-12-08T01:04:33.174Z,1004.72
2022-12-08T01:06:16.820Z,1004.72
2022-12-08T01:07:16.453Z,1004.73
2022-12-08T01:08:16.516Z,1004.71
2022-12-08T01:09:16.687Z,1004.70
2022-12-08T01:10:16.419Z,1004.67
2022-12-08T01:11:16.832Z,1004.69
2022-12-08T01:12:16.234Z,1004.71
2022-12-08T01:13:16.423Z,1004.70
2022-12-08T01:14:16.392Z,1004.69
2022-12-08T01:15:16.444Z,1004.68
2022-12-08T01:16:16.108Z,1004.67
2022-12-08T01:17:16.222Z,1004.64
2022-12-08T01:18:16.340Z,1004.64
2022-12-08T01:19:16.252Z,1004.63
2022-12-08T01:20:16.378Z,1004.60
2022-12-08T01:21:16.492Z,1004.58
2022-12-08T01:22:16.137Z,1004.59
2022-12-08T01:23:16.781Z,1004.59
2022-12-08T01:24:16.083Z,1004.58
2022-12-08T01:25:16.121Z,1004.55
2022-12-08T01:26:16.301Z,1004.56
2022-12-08T01:27:16.291Z,1004.54
2022-12-08T01:28:16.539Z,1004.54
2022-12-08T01:29:16.123Z,1004.56
2022-12-08T01:30:16.097Z,1004.55
2022-12-08T01:31:16.943Z,1004.55
2022-12-08T01:32:16.106Z,1004.58
2022-12-08T01:33:16.305Z,1004.55
2022-12-08T01:34:15.941Z,1004.56
2022-12-08T01:35:16.130Z,1004.56
2022-12-08T01:36:16.004Z,1004.57
2022-12-08T01:37:18.886Z,1004.56
2022-12-08T01:38:16.081Z,1004.58
2022-12-08T01:39:16.221Z,1004.58
2022-12-08T01:40:15.963Z,1004.59
2022-12-08T01:41:16.290Z,1004.62
2022-12-08T01:42:15.940Z,1004.59
2022-12-08T01:43:16.500Z,1004.61
2022-12-08T01:44:16.338Z,1004.59
2022-12-08T01:45:16.195Z,1004.60
2022-12-08T01:46:15.833Z,1004.60
2022-12-08T01:47:15.788Z,1004.61
2022-12-08T01:48:16.165Z,1004.59
2022-12-08T01:49:17.525Z,1004.56
2022-12-08T01:50:16.265Z,1004.57
2022-12-08T01:51:15.764Z,1004.57
2022-12-08T01:52:16.282Z,1004.57
2022-12-08T01:53:15.838Z,1004.55
2022-12-08T01:54:15.933Z,1004.57
2022-12-08T01:55:15.713Z,1004.56
2022-12-08T01:56:52.053Z,1004.52
2022-12-08T01:57:16.221Z,1004.55
2022-12-08T01:58:15.751Z,1004.54
2022-12-08T01:59:15.951Z,1004.52
2022-12-08T02:00:16.965Z,1004.51
2022-12-08T02:01:15.906Z,1004.50
2022-12-08T02:02:15.938Z,1004.48
2022-12-08T02:03:15.915Z,1004.46
2022-12-08T02:04:15.700Z,1004.45
2022-12-08T02:05:16.059Z,1004.42
2022-12-08T02:06:15.611Z,1004.43
2022-12-08T02:07:15.925Z,1004.41
2022-12-08T02:08:15.755Z,1004.39
2022-12-08T02:09:16.307Z,1004.36
2022-12-08T02:10:16.227Z,1004.37
2022-12-08T02:11:16.083Z,1004.34
2022-12-08T02:12:15.683Z,1004.35
2022-12-08T02:13:15.624Z,1004.35
2022-12-08T02:14:15.709Z,1004.34
2022-12-08T02:15:15.604Z,1004.35
2022-12-08T02:16:15.904Z,1004.33
2022-12-08T02:17:15.804Z,1004.31
2022-12-08T02:18:15.655Z,1004.30
2022-12-08T02:19:31.570Z,1004.30
2022-12-08T02:20:15.714Z,1004.28
2022-12-08T02:21:15.737Z,1004.27
2022-12-08T02:22:15.680Z,1004.25
2022-12-08T02:23:16.063Z,1004.24
2022-12-08T02:24:15.512Z,1004.22
2022-12-08T02:25:15.721Z,1004.20
2022-12-08T02:26:15.609Z,1004.19
2022-12-08T02:27:16.431Z,1004.16
2022-12-08T02:28:15.666Z,1004.16
2022-12-08T02:29:15.940Z,1004.14
2022-12-08T02:30:15.537Z,1004.13
2022-12-08T02:31:15.807Z,1004.14
2022-12-08T02:32:15.865Z,1004.14
2022-12-08T02:33:15.573Z,1004.11
2022-12-08T02:34:15.402Z,1004.09
2022-12-08T02:35:15.608Z,1004.11
2022-12-08T02:36:15.688Z,1004.09
2022-12-08T02:37:15.894Z,1004.07
2022-12-08T02:38:15.524Z,1004.07
2022-12-08T02:39:15.639Z,1004.09
2022-12-08T02:40:16.288Z,1004.08
2022-12-08T02:41:15.405Z,1004.07
2022-12-08T02:42:15.484Z,1004.07
2022-12-08T02:43:15.221Z,1004.06
2022-12-08T02:44:15.321Z,1004.03
2022-12-08T02:45:15.408Z,1004.03
2022-12-08T02:46:15.584Z,1004.02
2022-12-08T02:47:15.233Z,1004.01
2022-12-08T02:48:15.415Z,1004.00
2022-12-08T02:49:15.241Z,1003.98
2022-12-08T02:50:15.392Z,1003.99
2022-12-08T02:51:15.350Z,1003.94
2022-12-08T02:52:15.365Z,1003.94
2022-12-08T02:53:59.398Z,1003.92
2022-12-08T02:55:00.024Z,1003.89
2022-12-08T02:55:59.583Z,1003.87
2022-12-08T02:56:59.447Z,1003.83
2022-12-08T02:57:59.480Z,1003.82
2022-12-08T02:58:59.369Z,1003.78
2022-12-08T02:59:59.614Z,1003.78
2022-12-08T03:00:59.583Z,1003.76
2022-12-08T03:01:59.579Z,1003.75
2022-12-08T03:03:00.210Z,1003.75
2022-12-08T03:03:59.471Z,1003.75
2022-12-08T03:04:59.719Z,1003.74
2022-12-08T03:05:59.538Z,1003.74
2022-12-08T03:06:59.322Z,1003.77
2022-12-08T03:07:59.351Z,1003.72
2022-12-08T03:08:59.359Z,1003.72
2022-12-08T03:09:59.587Z,1003.72
2022-12-08T03:11:00.103Z,1003.70
2022-12-08T03:11:59.665Z,1003.70
2022-12-08T03:12:59.591Z,1003.70
2022-12-08T03:14:01.158Z,1003.71
2022-12-08T03:14:59.507Z,1003.68
2022-12-08T03:15:59.439Z,1003.67
2022-12-08T03:16:59.294Z,1003.66
2022-12-08T03:17:59.496Z,1003.63
2022-12-08T03:18:59.360Z,1003.61
2022-12-08T03:19:59.230Z,1003.59
2022-12-08T03:20:59.296Z,1003.57
2022-12-08T03:22:00.111Z,1003.55
2022-12-08T03:22:59.428Z,1003.52
2022-12-08T03:23:59.516Z,1003.51
2022-12-08T03:24:59.251Z,1003.50
2022-12-08T03:25:59.316Z,1003.47
2022-12-08T03:26:59.278Z,1003.42
2022-12-08T03:27:59.215Z,1003.41
2022-12-08T03:28:59.170Z,1003.41
2022-12-08T03:29:59.235Z,1003.41
2022-12-08T03:30:59.451Z,1003.40
2022-12-08T03:31:59.487Z,1003.36
2022-12-08T03:32:59.893Z,1003.37
2022-12-08T03:33:59.727Z,1003.33
2022-12-08T03:34:59.344Z,1003.35
2022-12-08T03:35:59.735Z,1003.32
2022-12-08T03:36:59.401Z,1003.30
2022-12-08T03:38:58.353Z,1003.28
2022-12-08T03:39:59.420Z,1003.27
2022-12-08T03:40:59.344Z,1003.28
2022-12-08T03:41:59.143Z,1003.25
2022-12-08T03:42:59.177Z,1003.25
2022-12-08T03:43:59.285Z,1003.25
2022-12-08T03:44:59.180Z,1003.23
2022-12-08T03:45:59.100Z,1003.25
2022-12-08T03:46:59.161Z,1003.21
2022-12-08T03:47:59.133Z,1003.20
2022-12-08T03:48:59.103Z,1003.19
2022-12-08T03:49:59.144Z,1003.18
2022-12-08T03:50:59.151Z,1003.17
2022-12-08T03:51:59.082Z,1003.14
2022-12-08T03:52:59.029Z,1003.14
2022-12-08T03:53:59.145Z,1003.14
2022-12-08T03:54:59.069Z,1003.12
2022-12-08T03:55:59.010Z,1003.10
2022-12-08T03:56:59.001Z,1003.10
2022-12-08T03:57:59.080Z,1003.08
2022-12-08T03:58:59.038Z,1003.07
2022-12-08T03:59:58.966Z,1003.07
2022-12-08T04:00:59.001Z,1003.05
2022-12-08T04:01:59.003Z,1003.05
2022-12-08T04:02:59.050Z,1003.05
2022-12-08T04:03:59.006Z,1003.04
2022-12-08T04:04:58.925Z,1003.02
2022-12-08T04:05:58.938Z,1003.01
2022-12-08T04:06:58.874Z,1003.00
2022-12-08T04:07:58.985Z,1002.99
2022-12-08T04:08:58.864Z,1002.98
2022-12-08T04:09:58.925Z,1003.00
2022-12-08T04:10:58.890Z,1002.98
2022-12-08T04:11:58.895Z,1002.96
2022-12-08T04:12:58.839Z,1002.98
2022-12-08T04:13:58.889Z,1002.98
2022-12-08T04:14:58.811Z,1002.98
2022-12-08T04:15:58.919Z,1002.97
2022-12-08T04:16:58.807Z,1002.97
2022-12-08T04:17:58.854Z,1002.96
2022-12-08T04:18:58.771Z,1002.96
2022-12-08T04:19:58.753Z,1002.94
2022-12-08T04:20:58.722Z,1002.93
2022-12-08T04:21:58.731Z,1002.89
2022-12-08T04:22:58.743Z,1002.88
2022-12-08T04:24:01.233Z,1002.87
2022-12-08T04:24:58.751Z,1002.86
2022-12-08T04:25:58.727Z,1002.83
2022-12-08T04:26:58.722Z,1002.82
2022-12-08T04:27:58.678Z,1002.82
2022-12-08T04:28:58.704Z,1002.81
2022-12-08T04:29:58.748Z,1002.78
2022-12-08T04:30:58.713Z,1002.79
2022-12-08T04:31:58.780Z,1002.78
2022-12-08T04:32:58.680Z,1002.80
2022-12-08T04:33:58.644Z,1002.78
2022-12-08T04:34:58.633Z,1002.75
2022-12-08T04:35:58.633Z,1002.73
2022-12-08T04:36:58.584Z,1002.74
2022-12-08T04:37:58.581Z,1002.73
2022-12-08T04:38:58.628Z,1002.74
2022-12-08T04:39:58.576Z,1002.72
2022-12-08T04:40:58.532Z,1002.77
2022-12-08T04:41:58.557Z,1002.74
2022-12-08T04:42:58.556Z,1002.75
2022-12-08T04:43:58.547Z,1002.76
2022-12-08T04:44:58.508Z,1002.73
2022-12-08T04:45:58.561Z,1002.72
2022-12-08T04:46:58.560Z,1002.72
2022-12-08T04:47:58.509Z,1002.73
2022-12-08T04:48:58.492Z,1002.74
2022-12-08T04:49:58.528Z,1002.71
2022-12-08T04:50:58.460Z,1002.71
2022-12-08T04:51:58.472Z,1002.71
2022-12-08T04:52:58.446Z,1002.73
2022-12-08T04:53:58.449Z,1002.71
2022-12-08T04:54:58.428Z,1002.73
2022-12-08T04:55:58.449Z,1002.75
2022-12-08T04:56:58.380Z,1002.74
2022-12-08T04:57:58.372Z,1002.75
2022-12-08T04:58:58.489Z,1002.74
2022-12-08T04:59:58.388Z,1002.74
2022-12-08T05:00:58.501Z,1002.74
2022-12-08T05:01:58.462Z,1002.74
2022-12-08T05:02:58.429Z,1002.75
2022-12-08T05:03:58.357Z,1002.73
2022-12-08T05:04:58.305Z,1002.74
2022-12-08T05:05:58.320Z,1002.71
2022-12-08T05:06:58.294Z,1002.69
2022-12-08T05:07:58.351Z,1002.72
2022-12-08T05:08:58.360Z,1002.67
2022-12-08T05:09:58.309Z,1002.65
2022-12-08T05:10:58.260Z,1002.64
2022-12-08T05:11:58.233Z,1002.65
2022-12-08T05:12:58.208Z,1002.66
2022-12-08T05:13:58.234Z,1002.65
2022-12-08T05:14:58.239Z,1002.64
2022-12-08T05:15:58.321Z,1002.63
2022-12-08T05:16:58.201Z,1002.64
2022-12-08T05:17:58.170Z,1002.66
2022-12-08T05:18:58.144Z,1002.61
2022-12-08T05:19:58.183Z,1002.62
2022-12-08T05:20:58.146Z,1002.61
2022-12-08T05:21:58.229Z,1002.59
2022-12-08T05:22:58.144Z,1002.59
2022-12-08T05:23:58.182Z,1002.59
2022-12-08T05:24:58.205Z,1002.59
2022-12-08T05:25:58.106Z,1002.57
2022-12-08T05:26:58.111Z,1002.55
2022-12-08T05:28:17.568Z,1002.56
2022-12-08T05:28:58.092Z,1002.58
2022-12-08T05:29:58.094Z,1002.57
2022-12-08T05:30:58.022Z,1002.56
2022-12-08T05:31:58.099Z,1002.56
2022-12-08T05:32:58.061Z,1002.57
2022-12-08T05:34:02.743Z,1002.55
2022-12-08T05:34:58.009Z,1002.55
2022-12-08T05:35:58.098Z,1002.52
2022-12-08T05:36:57.963Z,1002.52
2022-12-08T05:37:58.029Z,1002.51
2022-12-08T05:38:57.975Z,1002.51
2022-12-08T05:39:58.029Z,1002.49
2022-12-08T05:40:57.943Z,1002.48
2022-12-08T05:41:57.969Z,1002.48
2022-12-08T05:42:57.907Z,1002.49
2022-12-08T05:43:57.934Z,1002.46
2022-12-08T05:44:57.882Z,1002.46
2022-12-08T05:45:57.920Z,1002.43
2022-12-08T05:46:57.875Z,1002.40
2022-12-08T05:47:57.830Z,1002.39
2022-12-08T05:48:57.969Z,1002.38
2022-12-08T05:49:57.824Z,1002.37
2022-12-08T05:50:57.843Z,1002.38
2022-12-08T05:51:57.860Z,1002.36
2022-12-08T05:52:57.877Z,1002.36
2022-12-08T05:53:57.801Z,1002.37
2022-12-08T05:54:57.787Z,1002.34
2022-12-08T05:55:57.748Z,1002.35
2022-12-08T05:56:57.784Z,1002.34
2022-12-08T05:57:58.607Z,1002.35
2022-12-08T05:58:57.714Z,1002.32
2022-12-08T05:59:57.705Z,1002.32
2022-12-08T06:00:57.686Z,1002.30
2022-12-08T06:01:57.895Z,1002.31
2022-12-08T06:02:57.879Z,1002.30
2022-12-08T06:03:57.672Z,1002.30
2022-12-08T06:04:57.670Z,1002.30
2022-12-08T06:05:57.650Z,1002.29
2022-12-08T06:06:57.648Z,1002.28
2022-12-08T06:07:57.686Z,1002.29
2022-12-08T06:08:57.614Z,1002.26
2022-12-08T06:09:57.628Z,1002.27
2022-12-08T06:10:57.594Z,1002.27
2022-12-08T06:11:57.620Z,1002.26
2022-12-08T06:12:57.583Z,1002.25
2022-12-08T06:13:57.606Z,1002.27
2022-12-08T06:14:57.573Z,1002.24
2022-12-08T06:15:57.581Z,1002.25
2022-12-08T06:16:57.619Z,1002.25
2022-12-08T06:17:57.521Z,1002.24
2022-12-08T06:18:57.542Z,1002.24
2022-12-08T06:19:57.511Z,1002.25
2022-12-08T06:20:57.502Z,1002.25
2022-12-08T06:21:57.489Z,1002.24
2022-12-08T06:22:57.459Z,1002.23
2022-12-08T06:23:57.634Z,1002.25
2022-12-08T06:24:57.457Z,1002.23
2022-12-08T06:25:57.465Z,1002.24
2022-12-08T06:26:57.437Z,1002.23
2022-12-08T06:27:57.443Z,1002.24
2022-12-08T06:28:57.428Z,1002.26
2022-12-08T06:29:57.431Z,1002.25
2022-12-08T06:30:57.402Z,1002.25
2022-12-08T06:31:57.472Z,1002.24
2022-12-08T06:32:57.372Z,1002.23
2022-12-08T06:33:57.364Z,1002.23
2022-12-08T06:34:57.337Z,1002.24
2022-12-08T06:35:57.343Z,1002.25
2022-12-08T06:36:57.333Z,1002.22
2022-12-08T06:37:57.396Z,1002.24
2022-12-08T06:38:57.305Z,1002.24
2022-12-08T06:39:57.316Z,1002.22
2022-12-08T06:41:03.749Z,1002.22
2022-12-08T06:42:05.538Z,1002.23
2022-12-08T06:42:58.435Z,1002.25
2022-12-08T06:43:57.342Z,1002.24
2022-12-08T06:44:57.254Z,1002.24
2022-12-08T06:45:57.320Z,1002.24
2022-12-08T06:46:57.257Z,1002.25
2022-12-08T06:47:57.240Z,1002.27
2022-12-08T06:48:57.271Z,1002.28
2022-12-08T06:49:57.210Z,1002.29
2022-12-08T06:50:57.206Z,1002.28
2022-12-08T06:51:57.198Z,1002.28
2022-12-08T06:53:04.797Z,1002.26
2022-12-08T06:53:57.178Z,1002.28
2022-12-08T06:54:57.101Z,1002.28
2022-12-08T06:55:59.665Z,1002.30
2022-12-08T06:56:57.072Z,1002.28
2022-12-08T06:57:57.253Z,1002.29
2022-12-08T06:58:57.071Z,1002.29
2022-12-08T06:59:57.094Z,1002.29
2022-12-08T07:00:57.111Z,1002.29
2022-12-08T07:01:57.100Z,1002.28
2022-12-08T07:02:57.150Z,1002.30
2022-12-08T07:03:57.051Z,1002.30
2022-12-08T07:04:57.022Z,1002.30
2022-12-08T07:06:03.253Z,1002.29
2022-12-08T07:06:56.996Z,1002.30
2022-12-08T07:07:57.095Z,1002.31
2022-12-08T07:08:56.984Z,1002.31
2022-12-08T07:09:56.978Z,1002.32
2022-12-08T07:10:56.929Z,1002.31
2022-12-08T07:11:56.901Z,1002.32
2022-12-08T07:12:56.905Z,1002.33
2022-12-08T07:13:56.910Z,1002.34
2022-12-08T07:14:56.888Z,1002.38
2022-12-08T07:15:56.906Z,1002.37
2022-12-08T07:16:56.993Z,1002.37
2022-12-08T07:18:00.107Z,1002.36
2022-12-08T07:18:56.855Z,1002.37
2022-12-08T07:19:56.831Z,1002.38
2022-12-08T07:20:56.810Z,1002.37
2022-12-08T07:21:56.813Z,1002.38
2022-12-08T07:22:57.040Z,1002.38
2022-12-08T07:23:58.012Z,1002.37
2022-12-08T07:24:56.768Z,1002.39
2022-12-08T07:25:56.804Z,1002.38
2022-12-08T07:26:56.803Z,1002.40
2022-12-08T07:27:56.740Z,1002.40
2022-12-08T07:28:56.749Z,1002.42
2022-12-08T07:29:56.746Z,1002.43
2022-12-08T07:30:56.748Z,1002.42
2022-12-08T07:31:56.696Z,1002.42
2022-12-08T07:32:56.714Z,1002.42
2022-12-08T07:33:56.690Z,1002.40
2022-12-08T07:34:56.670Z,1002.40
2022-12-08T07:35:56.668Z,1002.40
2022-12-08T07:36:56.644Z,1002.38
2022-12-08T07:37:56.643Z,1002.39
2022-12-08T07:38:56.679Z,1002.37
2022-12-08T07:39:56.676Z,1002.39
2022-12-08T07:40:56.630Z,1002.38
2022-12-08T07:41:56.614Z,1002.39
2022-12-08T07:42:56.625Z,1002.39
2022-12-08T07:43:56.627Z,1002.38
2022-12-08T07:44:56.576Z,1002.37
2022-12-08T07:45:56.752Z,1002.38
2022-12-08T07:46:56.554Z,1002.37
2022-12-08T07:47:56.534Z,1002.37
2022-12-08T07:48:56.610Z,1002.38
2022-12-08T07:49:56.573Z,1002.38
2022-12-08T07:50:56.504Z,1002.38
2022-12-08T07:51:56.526Z,1002.36
2022-12-08T07:52:56.508Z,1002.36
2022-12-08T07:53:56.490Z,1002.35
2022-12-08T07:54:56.481Z,1002.36
2022-12-08T07:55:56.524Z,1002.37
2022-12-08T07:56:56.450Z,1002.36
2022-12-08T07:57:56.448Z,1002.36
2022-12-08T07:58:56.447Z,1002.36
2022-12-08T07:59:56.554Z,1002.37
2022-12-08T08:00:56.518Z,1002.36
2022-12-08T08:02:22.411Z,1002.37
2022-12-08T08:02:56.504Z,1002.36
2022-12-08T08:03:56.377Z,1002.34
2022-12-08T08:04:56.418Z,1002.36
2022-12-08T08:05:56.359Z,1002.36
2022-12-08T08:06:56.354Z,1002.38
2022-12-08T08:07:56.395Z,1002.39
2022-12-08T08:08:56.349Z,1002.40
2022-12-08T08:09:56.312Z,1002.42
2022-12-08T08:10:56.333Z,1002.43
2022-12-08T08:12:29.086Z,1002.42
2022-12-08T08:12:56.317Z,1002.47
2022-12-08T08:13:56.249Z,1002.42
2022-12-08T08:14:56.286Z,1002.43
2022-12-08T08:15:56.400Z,1002.43
2022-12-08T08:16:56.523Z,1002.44
2022-12-08T08:17:56.222Z,1002.42
2022-12-08T08:18:56.256Z,1002.41
2022-12-08T08:19:56.220Z,1002.45
2022-12-08T08:20:57.979Z,1002.45
2022-12-08T08:21:56.186Z,1002.46
2022-12-08T08:22:56.176Z,1002.48
2022-12-08T08:23:56.159Z,1002.48
2022-12-08T08:24:56.230Z,1002.47
2022-12-08T08:25:56.179Z,1002.53
2022-12-08T08:26:56.142Z,1002.51
2022-12-08T08:27:56.159Z,1002.54
2022-12-08T08:28:56.126Z,1002.57
2022-12-08T08:29:56.100Z,1002.57
2022-12-08T08:30:56.138Z,1002.58
2022-12-08T08:31:56.112Z,1002.58
2022-12-08T08:32:56.063Z,1002.58
2022-12-08T08:33:56.050Z,1002.59
2022-12-08T08:34:56.123Z,1002.57
2022-12-08T08:35:56.082Z,1002.59
2022-12-08T08:36:56.069Z,1002.59
2022-12-08T08:37:56.045Z,1002.59
2022-12-08T08:38:56.017Z,1002.58
2022-12-08T08:39:56.021Z,1002.59
2022-12-08T08:40:56.026Z,1002.57
2022-12-08T08:41:56.019Z,1002.57
2022-12-08T08:42:55.988Z,1002.58
2022-12-08T08:43:55.973Z,1002.60
2022-12-08T08:44:56.048Z,1002.59
2022-12-08T08:45:56.002Z,1002.59
2022-12-08T08:46:55.986Z,1002.59
2022-12-08T08:47:55.950Z,1002.58
2022-12-08T08:48:55.988Z,1002.61
2022-12-08T08:49:55.899Z,1002.62
2022-12-08T08:50:55.923Z,1002.63
2022-12-08T08:51:55.999Z,1002.62
2022-12-08T08:52:55.893Z,1002.63
2022-12-08T08:53:55.858Z,1002.64
2022-12-08T08:54:55.881Z,1002.63
2022-12-08T08:55:55.860Z,1002.64
2022-12-08T08:56:55.836Z,1002.63
2022-12-08T08:57:55.818Z,1002.64
2022-12-08T08:58:55.878Z,1002.63
2022-12-08T08:59:55.821Z,1002.63
2022-12-08T09:00:55.820Z,1002.65
2022-12-08T09:01:55.893Z,1002.65
2022-12-08T09:02:55.806Z,1002.65
2022-12-08T09:03:55.789Z,1002.66
2022-12-08T09:04:55.838Z,1002.68
2022-12-08T09:05:55.776Z,1002.69
2022-12-08T09:06:55.742Z,1002.69
2022-12-08T09:07:55.794Z,1002.68
2022-12-08T09:08:55.709Z,1002.68
2022-12-08T09:10:01.268Z,1002.69
2022-12-08T09:10:55.746Z,1002.69
2022-12-08T09:11:55.704Z,1002.68
2022-12-08T09:12:55.679Z,1002.68
2022-12-08T09:13:55.655Z,1002.69
2022-12-08T09:14:55.690Z,1002.68
2022-12-08T09:15:55.685Z,1002.68
2022-12-08T09:16:55.628Z,1002.69
2022-12-08T09:17:55.640Z,1002.69
2022-12-08T09:18:55.610Z,1002.70
2022-12-08T09:19:55.591Z,1002.71
2022-12-08T09:20:55.681Z,1002.72
2022-12-08T09:21:55.632Z,1002.73
2022-12-08T09:22:55.579Z,1002.73
2022-12-08T09:23:55.578Z,1002.72
2022-12-08T09:24:55.592Z,1002.73
2022-12-08T09:25:55.537Z,1002.73
2022-12-08T09:26:55.531Z,1002.73
2022-12-08T09:27:55.509Z,1002.72
2022-12-08T09:28:55.516Z,1002.72
2022-12-08T09:29:55.490Z,1002.72
2022-12-08T09:30:55.567Z,1002.73
2022-12-08T09:31:55.523Z,1002.74
2022-12-08T09:32:55.465Z,1002.72
2022-12-08T09:33:55.509Z,1002.73
2022-12-08T09:34:55.494Z,1002.75
2022-12-08T09:35:55.434Z,1002.76
2022-12-08T09:36:55.436Z,1002.76
2022-12-08T09:37:55.438Z,1002.75
2022-12-08T09:38:55.430Z,1002.74
2022-12-08T09:39:55.412Z,1002.73
2022-12-08T09:40:55.397Z,1002.73
2022-12-08T09:41:55.383Z,1002.73
2022-12-08T09:42:55.362Z,1002.72
2022-12-08T09:43:55.409Z,1002.70
2022-12-08T09:44:55.357Z,1002.68
2022-12-08T09:45:55.314Z,1002.67
2022-12-08T09:46:55.403Z,1002.65
2022-12-08T09:47:55.303Z,1002.64
2022-12-08T09:48:55.304Z,1002.64
2022-12-08T09:49:55.315Z,1002.62
2022-12-08T09:50:55.291Z,1002.62
2022-12-08T09:51:55.264Z,1002.63
2022-12-08T09:52:55.253Z,1002.61
2022-12-08T09:53:55.289Z,1002.60
2022-12-08T09:54:55.231Z,1002.60
2022-12-08T09:55:55.218Z,1002.61
2022-12-08T09:56:55.235Z,1002.61
2022-12-08T09:57:56.636Z,1002.61
2022-12-08T09:58:55.193Z,1002.62
2022-12-08T09:59:55.204Z,1002.64
2022-12-08T10:00:55.190Z,1002.64
2022-12-08T10:01:55.233Z,1002.64
2022-12-08T10:02:55.141Z,1002.62
2022-12-08T10:03:55.208Z,1002.61
2022-12-08T10:04:55.195Z,1002.59
2022-12-08T10:05:55.143Z,1002.59
2022-12-08T10:06:55.126Z,1002.58
2022-12-08T10:07:55.159Z,1002.58
2022-12-08T10:08:55.110Z,1002.59
2022-12-08T10:09:55.099Z,1002.59
2022-12-08T10:10:55.105Z,1002.60
2022-12-08T10:11:55.050Z,1002.60
2022-12-08T10:12:55.076Z,1002.60
2022-12-08T10:13:55.035Z,1002.59
2022-12-08T10:14:55.047Z,1002.59
2022-12-08T10:15:55.063Z,1002.58
2022-12-08T10:16:55.069Z,1002.56
2022-12-08T10:17:55.042Z,1002.56
2022-12-08T10:18:54.982Z,1002.55
2022-12-08T10:19:55.046Z,1002.55
2022-12-08T10:20:55.031Z,1002.55
2022-12-08T10:21:54.942Z,1002.54
2022-12-08T10:22:54.995Z,1002.53
2022-12-08T10:23:54.926Z,1002.52
2022-12-08T10:24:54.919Z,1002.50
2022-12-08T10:25:54.925Z,1002.49
2022-12-08T10:26:54.932Z,1002.48
2022-12-08T10:27:54.875Z,1002.47
2022-12-08T10:28:54.882Z,1002.45
2022-12-08T10:29:54.876Z,1002.45
2022-12-08T10:30:54.978Z,1002.44
2022-12-08T10:31:54.923Z,1002.44
2022-12-08T10:32:54.875Z,1002.45
2022-12-08T10:33:54.848Z,1002.46
2022-12-08T10:34:56.401Z,1002.45
2022-12-08T10:35:54.799Z,1002.44
2022-12-08T10:36:54.872Z,1002.43
2022-12-08T10:37:54.790Z,1002.43
2022-12-08T10:38:54.787Z,1002.42
2022-12-08T10:39:54.793Z,1002.41
2022-12-08T10:40:54.756Z,1002.41
2022-12-08T10:41:54.756Z,1002.41
2022-12-08T10:42:54.792Z,1002.40
2022-12-08T10:43:54.727Z,1002.41
2022-12-08T10:44:54.712Z,1002.41
2022-12-08T10:45:54.729Z,1002.42
2022-12-08T10:46:54.837Z,1002.41
2022-12-08T10:47:55.621Z,1002.42
2022-12-08T10:48:54.675Z,1002.43
2022-12-08T10:49:54.692Z,1002.43
2022-12-08T10:50:54.659Z,1002.41
2022-12-08T10:51:54.637Z,1002.40
2022-12-08T10:52:54.651Z,1002.38
2022-12-08T10:53:54.606Z,1002.37
2022-12-08T10:54:54.629Z,1002.35
2022-12-08T10:55:54.620Z,1002.34
2022-12-08T10:56:54.608Z,1002.33
2022-12-08T10:57:54.574Z,1002.31
2022-12-08T10:58:54.590Z,1002.31
2022-12-08T10:59:54.574Z,1002.29
2022-12-08T11:00:54.623Z,1002.28
2022-12-08T11:01:54.735Z,1002.26
2022-12-08T11:02:54.635Z,1002.25
2022-12-08T11:03:54.558Z,1002.24
2022-12-08T11:04:54.509Z,1002.24
2022-12-08T11:05:54.488Z,1002.23
2022-12-08T11:06:54.549Z,1002.24
2022-12-08T11:07:54.554Z,1002.25
2022-12-08T11:08:54.508Z,1002.24
2022-12-08T11:09:54.451Z,1002.25
2022-12-08T11:10:54.449Z,1002.23
2022-12-08T11:11:54.453Z,1002.23
2022-12-08T11:12:54.464Z,1002.22
2022-12-08T11:13:54.435Z,1002.21
2022-12-08T11:14:54.421Z,1002.21
2022-12-08T11:15:54.462Z,1002.20
2022-12-08T11:16:54.473Z,1002.21
2022-12-08T11:17:57.616Z,1002.22
2022-12-08T11:18:54.394Z,1002.21
2022-12-08T11:19:54.382Z,1002.21
2022-12-08T11:20:54.365Z,1002.20
2022-12-08T11:21:54.333Z,1002.19
2022-12-08T11:22:54.320Z,1002.17
2022-12-08T11:23:54.318Z,1002.16
2022-12-08T11:24:54.343Z,1002.16
2022-12-08T11:25:54.341Z,1002.14
2022-12-08T11:26:54.320Z,1002.14
2022-12-08T11:27:54.274Z,1002.13
2022-12-08T11:28:54.295Z,1002.12
2022-12-08T11:29:54.261Z,1002.12
2022-12-08T11:30:54.252Z,1002.12
2022-12-08T11:31:54.288Z,1002.10
2022-12-08T11:32:54.229Z,1002.10
2022-12-08T11:33:54.190Z,1002.08
2022-12-08T11:34:54.214Z,1002.07
2022-12-08T11:35:54.198Z,1002.08
2022-12-08T11:36:54.200Z,1002.05
2022-12-08T11:38:03.065Z,1002.06
2022-12-08T11:38:54.167Z,1002.05
2022-12-08T11:39:54.292Z,1002.05
2022-12-08T11:40:54.197Z,1002.03
2022-12-08T11:41:54.150Z,1002.03
2022-12-08T11:42:54.165Z,1002.02
2022-12-08T11:43:54.250Z,1002.04
2022-12-08T11:44:54.177Z,1002.02
2022-12-08T11:45:54.145Z,1002.03
2022-12-08T11:46:54.138Z,1002.03
2022-12-08T11:47:55.935Z,1002.04
2022-12-08T11:48:54.161Z,1002.03
2022-12-08T11:49:54.159Z,1002.02
2022-12-08T11:50:54.078Z,1002.01
2022-12-08T11:51:54.061Z,1002.01
2022-12-08T11:52:54.191Z,1002.00
2022-12-08T11:53:54.182Z,1001.99
2022-12-08T11:54:54.089Z,1001.99
2022-12-08T11:55:53.999Z,1001.97
2022-12-08T11:56:53.980Z,1001.97
2022-12-08T11:57:54.120Z,1001.97
2022-12-08T11:58:54.769Z,1001.97
2022-12-08T11:59:53.969Z,1001.96
2022-12-08T12:00:54.051Z,1001.95
2022-12-08T12:01:54.083Z,1001.96
2022-12-08T12:02:53.949Z,1001.95
2022-12-08T12:03:53.928Z,1001.93
2022-12-08T12:04:53.971Z,1001.92
2022-12-08T12:06:12.939Z,1001.91
2022-12-08T12:06:55.439Z,1001.91
2022-12-08T12:07:53.996Z,1001.93